createdAt,value
2023-02-09T00:02:37.508Z,103156.56
2023-02-09T00:07:39.238Z,103146.16
2023-02-09T00:12:42.993Z,103155.56
2023-02-09T00:17:45.173Z,103143.69
2023-02-09T00:22:47.603Z,103143.94
2023-02-09T00:27:51.130Z,103146.22
2023-02-09T00:32:53.468Z,103147.00
2023-02-09T00:37:55.815Z,103130.69
2023-02-09T00:42:59.300Z,103130.47
2023-02-09T00:48:02.555Z,103122.16
2023-02-09T00:53:04.782Z,103127.56
2023-02-09T00:58:08.412Z,103116.84
2023-02-09T01:03:11.488Z,103122.78
2023-02-09T01:08:13.572Z,103115.09
2023-02-09T01:13:17.712Z,103111.31
2023-02-09T01:18:19.819Z,103113.88
2023-02-09T01:23:21.983Z,103112.03
2023-02-09T01:28:26.564Z,103111.91
2023-02-09T01:33:29.326Z,103106.31
2023-02-09T01:38:31.499Z,103091.91
2023-02-09T01:43:57.495Z,103089.78
2023-02-09T01:49:05.440Z,103070.97
2023-02-09T01:54:12.356Z,103073.41
2023-02-09T01:59:17.033Z,103066.88
2023-02-09T02:04:19.946Z,103053.69
2023-02-09T02:09:22.204Z,103049.72
2023-02-09T02:14:36.952Z,103041.25
2023-02-09T02:20:08.110Z,103026.09
2023-02-09T02:25:56.967Z,103023.66
2023-02-09T02:31:26.646Z,103010.94
2023-02-09T02:36:39.586Z,103012.44
2023-02-09T02:41:51.865Z,103011.06
2023-02-09T02:46:59.892Z,103011.84
2023-02-09T02:52:31.601Z,103013.78
2023-02-09T02:57:37.137Z,103006.38
2023-02-09T03:02:43.779Z,103006.06
2023-02-09T03:07:47.111Z,102996.34
2023-02-09T03:12:57.774Z,102987.84
2023-02-09T03:18:06.642Z,102972.69
2023-02-09T03:23:18.166Z,102987.25
2023-02-09T03:28:25.814Z,102978.72
2023-02-09T03:33:32.170Z,102963.50
2023-02-09T03:38:35.646Z,102959.53
2023-02-09T03:43:38.085Z,102960.09
2023-02-09T03:48:39.815Z,102961.91
2023-02-09T03:53:43.196Z,102962.13
2023-02-09T03:58:45.763Z,102961.81
2023-02-09T04:03:48.314Z,102955.38
2023-02-09T04:08:51.693Z,102956.25
2023-02-09T04:13:53.913Z,102936.50
2023-02-09T04:18:56.447Z,102942.84
2023-02-09T04:24:00.001Z,102941.91
2023-02-09T04:29:02.456Z,102935.06
2023-02-09T04:34:04.416Z,102927.19
2023-02-09T04:39:07.967Z,102931.97
2023-02-09T04:44:10.125Z,102936.00
2023-02-09T04:49:12.364Z,102947.69
2023-02-09T04:54:16.310Z,102936.16
2023-02-09T04:59:19.056Z,102942.47
2023-02-09T05:04:21.220Z,102935.06
2023-02-09T05:09:24.868Z,102932.03
2023-02-09T05:14:27.633Z,102930.22
2023-02-09T05:19:29.882Z,102934.19
2023-02-09T05:24:33.462Z,102927.53
2023-02-09T05:29:35.642Z,102929.06
2023-02-09T05:34:37.424Z,102923.41
2023-02-09T05:39:40.826Z,102919.25
2023-02-09T05:44:43.062Z,102914.09
2023-02-09T05:49:45.892Z,102915.22
2023-02-09T05:54:49.820Z,102921.03
2023-02-09T05:59:51.904Z,102906.66
2023-02-09T06:04:53.980Z,102921.63
2023-02-09T06:09:57.455Z,102927.09
2023-02-09T06:14:59.366Z,102919.56
2023-02-09T06:20:01.804Z,102922.13
2023-02-09T06:25:05.782Z,102928.78
2023-02-09T06:30:09.290Z,102924.38
2023-02-09T06:35:11.410Z,102929.13
2023-02-09T06:40:14.969Z,102915.53
2023-02-09T06:45:17.452Z,102924.94
2023-02-09T06:50:19.700Z,102925.63
2023-02-09T06:55:23.666Z,102923.19
2023-02-09T07:00:26.074Z,102916.44
2023-02-09T07:05:28.306Z,102924.06
2023-02-09T07:10:31.420Z,102929.53
2023-02-09T07:15:33.627Z,102932.78
2023-02-09T07:20:35.854Z,102927.81
2023-02-09T07:25:39.038Z,102940.03
2023-02-09T07:30:41.178Z,102927.69
2023-02-09T07:35:42.999Z,102917.34
2023-02-09T07:40:46.641Z,102932.69
2023-02-09T07:45:48.723Z,102919.41
2023-02-09T07:50:51.612Z,102918.03
2023-02-09T07:55:55.037Z,102925.81
2023-02-09T08:01:03.595Z,102926.38
2023-02-09T08:06:13.853Z,102920.94
2023-02-09T08:11:20.744Z,102918.47
2023-02-09T08:16:27.531Z,102914.16
2023-02-09T08:21:33.959Z,102898.44
2023-02-09T08:26:37.631Z,102900.06
2023-02-09T08:31:39.901Z,102897.03
2023-02-09T08:36:41.937Z,102895.38
2023-02-09T08:41:46.385Z,102889.94
2023-02-09T08:46:48.466Z,102878.59
2023-02-09T08:51:50.827Z,102880.63
2023-02-09T08:56:54.549Z,102880.81
2023-02-09T09:01:56.485Z,102888.94
2023-02-09T09:06:58.944Z,102885.03
2023-02-09T09:12:02.264Z,102897.00
2023-02-09T09:17:05.198Z,102891.63
2023-02-09T09:22:07.580Z,102883.97
2023-02-09T09:27:10.859Z,102878.44
2023-02-09T09:32:13.482Z,102865.50
2023-02-09T09:37:16.025Z,102872.78
2023-02-09T09:42:37.451Z,102864.50
2023-02-09T09:47:41.324Z,102869.22
2023-02-09T09:52:46.598Z,102869.28
2023-02-09T09:58:01.701Z,102854.91
2023-02-09T10:03:04.775Z,102856.41
2023-02-09T10:08:15.256Z,102845.69
2023-02-09T10:13:24.631Z,102832.63
2023-02-09T10:18:28.924Z,102846.97
2023-02-09T10:23:38.813Z,102824.03
2023-02-09T10:28:44.491Z,102815.88
2023-02-09T10:33:52.610Z,102813.38
2023-02-09T10:39:04.362Z,102794.06
2023-02-09T10:44:14.289Z,102789.97
2023-02-09T10:49:28.756Z,102784.63
2023-02-09T10:54:31.718Z,102788.44
2023-02-09T10:59:53.979Z,102764.09
2023-02-09T11:04:56.310Z,102763.53
2023-02-09T11:09:58.940Z,102740.97
2023-02-09T11:15:02.565Z,102738.50
2023-02-09T11:20:21.802Z,102718.72
2023-02-09T11:25:27.808Z,102722.69
2023-02-09T11:30:54.859Z,102730.19
2023-02-09T11:36:23.975Z,102718.84
2023-02-09T11:41:51.970Z,102736.25
2023-02-09T11:47:02.784Z,102732.00
2023-02-09T11:52:08.046Z,102722.91
2023-02-09T11:57:19.259Z,102740.50
2023-02-09T12:02:37.860Z,102732.41
2023-02-09T12:07:46.909Z,102722.56
2023-02-09T12:12:52.075Z,102720.44
2023-02-09T12:18:00.698Z,102721.06
2023-02-09T12:23:05.160Z,102719.28
2023-02-09T12:28:14.637Z,102714.59
2023-02-09T12:33:20.023Z,102708.03
2023-02-09T12:38:22.007Z,102713.13
2023-02-09T12:43:29.865Z,102698.94
2023-02-09T12:48:33.046Z,102673.28
2023-02-09T12:53:46.067Z,102676.59
2023-02-09T12:58:56.244Z,102673.53
2023-02-09T13:04:03.527Z,102674.91
2023-02-09T13:09:18.023Z,102682.78
2023-02-09T13:14:20.953Z,102687.25
2023-02-09T13:19:51.634Z,102697.75
2023-02-09T13:24:58.709Z,102698.63
2023-02-09T13:30:01.238Z,102695.13
2023-02-09T13:35:15.493Z,102706.81
2023-02-09T13:40:22.608Z,102705.06
2023-02-09T13:45:26.366Z,102693.75
2023-02-09T13:50:30.589Z,102689.25
2023-02-09T13:55:33.092Z,102672.84
2023-02-09T14:00:40.523Z,102668.66
2023-02-09T14:05:49.569Z,102682.50
2023-02-09T14:10:55.511Z,102664.09
2023-02-09T14:16:01.040Z,102651.34
2023-02-09T14:21:45.137Z,102674.00
2023-02-09T14:26:52.973Z,102667.63
2023-02-09T14:31:57.218Z,102654.88
2023-02-09T14:37:02.955Z,102669.56
2023-02-09T14:42:17.777Z,102691.31
2023-02-09T14:47:39.540Z,102697.56
2023-02-09T14:52:47.718Z,102690.75
2023-02-09T14:57:49.905Z,102702.13
2023-02-09T15:02:58.553Z,102684.06
2023-02-09T15:08:05.851Z,102670.59
2023-02-09T15:13:11.261Z,102675.97
2023-02-09T15:18:18.207Z,102656.69
2023-02-09T15:23:21.896Z,102654.88
2023-02-09T15:28:26.817Z,102645.03
2023-02-09T15:33:29.760Z,102674.66
2023-02-09T15:38:33.539Z,102657.69
2023-02-09T15:43:36.013Z,102665.94
2023-02-09T15:48:38.217Z,102662.09
2023-02-09T15:53:42.871Z,102653.53
2023-02-09T15:58:46.015Z,102653.28
2023-02-09T16:03:48.677Z,102641.47
2023-02-09T16:08:53.711Z,102632.72
2023-02-09T16:13:55.906Z,102644.59
2023-02-09T16:18:57.659Z,102644.09
2023-02-09T16:24:02.994Z,102623.84
2023-02-09T16:29:06.481Z,102632.19
2023-02-09T16:34:14.659Z,102618.59
2023-02-09T16:44:52.325Z,102659.75
2023-02-09T16:50:00.752Z,102649.31
2023-02-09T16:55:06.971Z,102644.97
2023-02-09T17:00:11.193Z,102655.50
2023-02-09T17:05:19.366Z,102668.16
2023-02-09T17:10:25.374Z,102689.25
2023-02-09T17:15:31.700Z,102666.28
2023-02-09T17:31:53.929Z,102680.56
2023-02-09T17:36:57.306Z,102687.09
2023-02-09T17:42:00.506Z,102670.69
2023-02-09T17:47:02.714Z,102680.56
2023-02-09T17:52:04.932Z,102690.72
2023-02-09T17:57:09.440Z,102689.59
2023-02-09T18:02:14.975Z,102693.44
2023-02-09T18:07:20.853Z,102686.63
2023-02-09T18:18:05.812Z,102683.22
2023-02-09T18:23:20.433Z,102690.16
2023-02-09T18:28:26.888Z,102700.06
2023-02-09T18:33:31.756Z,102690.31
2023-02-09T18:38:42.743Z,102699.56
2023-02-09T18:43:54.170Z,102678.66
2023-02-09T18:48:56.201Z,102685.56
2023-02-09T18:53:58.431Z,102676.13
2023-02-09T18:59:09.656Z,102682.81
2023-02-09T19:04:12.928Z,102669.81
2023-02-09T19:09:16.008Z,102667.56
2023-02-09T19:14:19.233Z,102667.69
2023-02-09T19:19:21.380Z,102674.50
2023-02-09T19:24:40.979Z,102675.19
2023-02-09T19:29:45.636Z,102668.88
2023-02-09T19:34:48.616Z,102680.66
2023-02-09T19:39:54.567Z,102685.88
2023-02-09T19:44:57.974Z,102685.66
2023-02-09T19:50:07.996Z,102678.91
2023-02-09T19:55:11.688Z,102682.81
2023-02-09T20:00:21.941Z,102673.13
2023-02-09T20:05:24.928Z,102664.56
2023-02-09T20:10:26.872Z,102672.59
2023-02-09T20:15:45.308Z,102665.69
2023-02-09T20:20:48.441Z,102657.28
2023-02-09T20:26:09.296Z,102653.91
2023-02-09T20:31:15.021Z,102667.09
2023-02-09T20:36:17.990Z,102669.66
2023-02-09T20:41:20.220Z,102670.88
2023-02-09T20:46:27.200Z,102674.50
2023-02-09T20:51:32.182Z,102674.00
2023-02-09T20:56:34.578Z,102675.59
2023-02-09T21:01:38.776Z,102667.69
2023-02-09T21:06:40.964Z,102672.13
2023-02-09T21:11:44.117Z,102677.41
2023-02-09T21:16:47.350Z,102682.19
2023-02-09T21:21:49.451Z,102687.22
2023-02-09T21:26:51.672Z,102699.91
2023-02-09T21:32:02.616Z,102704.47
2023-02-09T21:37:04.691Z,102704.03
2023-02-09T21:42:07.167Z,102705.88
2023-02-09T21:47:12.524Z,102701.41
2023-02-09T21:52:15.165Z,102712.38
2023-02-09T21:57:17.339Z,102701.69
2023-02-09T22:02:20.851Z,102703.28
2023-02-09T22:07:22.829Z,102706.19
2023-02-09T22:12:24.943Z,102714.53
2023-02-09T22:17:28.407Z,102700.72
2023-02-09T22:22:30.502Z,102716.78
2023-02-09T22:27:32.220Z,102716.16
2023-02-09T22:32:35.701Z,102715.09
2023-02-09T22:37:37.898Z,102723.75
2023-02-09T22:42:40.315Z,102724.13
2023-02-09T22:47:43.474Z,102729.47
2023-02-09T22:52:45.478Z,102718.84
2023-02-09T22:57:47.657Z,102736.44
2023-02-09T23:02:51.113Z,102729.34
2023-02-09T23:07:53.312Z,102733.56
2023-02-09T23:12:55.366Z,102726.53
2023-02-09T23:17:58.872Z,102730.63
2023-02-09T23:23:01.020Z,102726.22
2023-02-09T23:28:03.274Z,102736.38
2023-02-09T23:33:06.639Z,102721.47
2023-02-09T23:38:09.292Z,102731.09
2023-02-09T23:43:11.713Z,102740.31
2023-02-09T23:48:15.010Z,102745.78
2023-02-09T23:53:17.175Z,102736.41
2023-02-09T23:58:19.232Z,102733.94
